LIRNLATI

Guest
Details From LIRN - Naples Capodichino
To LATI - Tirana Rinas
Flight Number -
Tags generated
Created
Modified
Stats Distance 249 nm / 461 km
Max Altitude 29,400 ft / 8,961 m
Waypoints 6
Social Downloads 0
Likes 0
Share VATSIM

Download

Looking for another format? Having issues loading an existing format? Contact us
Advertisement - Login to hide

Notes

Basic altitude profile: - Ascent Rate: 2500ft/min - Ascent Speed: 250kts - Cruise Altitude: 32000ft - Cruise Speed: 320kts - Descent Rate: 1500ft/min - Descent Speed: 250kts Options: - Use NATs: yes - Use PACOTS: yes - Use low airways: yes - Use high airways: yes

Route

LIRN TOPNO P748 BAR PIKEL ENOXA LATI

ID Type Via Altitude Latitude Longitude Leg Dist Tot Dist Heading (true) Name
O LIRN APT - 0 ft / 0 m 40.88603˚ 14.29078˚ - 0 nm - Naples Capodichino
TOPNO FIX - 29,400 ft / 8,961 m 40.95167˚ 16.10778˚ 82 nm 82 nm 87° / 88° -
BAR VOR P748 (AWY-LO) 19,500 ft / 5,944 m 41.14417˚ 16.77638˚ 32 nm 114 nm 69° / 69° BARI VOR-DME
PIKEL FIX - 23,900 ft / 7,285 m 41.18417˚ 17.15833˚ 17 nm 132 nm 82° / 82° -
ENOXA FIX - 19,000 ft / 5,791 m 41.20139˚ 17.66889˚ 23 nm 155 nm 87° / 88° -
O LATI APT - 0 ft / 0 m 41.41473˚ 19.72057˚ 93 nm 248 nm 81° / 83° Tirana Rinas

Altitude Profile

Advertisement - Login to hide

Weather


0- 5 10 15 20 25 30 35+ Temperature / ° C

Clouds and Precipitation
Forecast for 2017-12-16 00:00 UTC. Updated an hour ago

Ground ~20,000 ft ~40,000 ft Winds

LIRN

Details ICAO LIRN (NAP)
Name Naples Capodichino
Region Italy
Timezone Europe/Rome (UTC+1.0)
Stats Elevation 294 ft / 90 m (AMSL)
Location 40.886032° 14.290783°
Runways 1
Magnetic Variation 3.308° E

METAR

LIRN 152020Z 21018G29KT 7000 -RA SCT018 BKN030 15/13 Q1002 RERA NOSIG

Decode

TAF

TAF LIRN 151700Z 1518/1618 23015KT 9999 SCT030 BKN050 TEMPO 1518/1521 24017G27KT TEMPO 1518/1603 4000 SHRA BECMG 1602/1604 29012KT TEMPO 1609/1615 TSRA TEMPO 1615/1618 RA

Decode

Departure Runways

ID Width Length Bearing (true) Bearing (mag) Surface Threshold Offset Overrun Length
06 148 ft / 45 m 8,612 ft / 2,625 m 58.03° 54.72° Asphalt 1,309 ft / 399 m 0 ft / 0 m
24 148 ft / 45 m 8,612 ft / 2,625 m 238.05° 234.74° Asphalt 624 ft / 190 m 0 ft / 0 m

LATI

Details ICAO LATI (TIA)
Name Tirana Rinas
Region Albania
Timezone Europe/Tirane (UTC+1.0)
Stats Elevation 126 ft / 38 m (AMSL)
Location 41.414732° 19.720569°
Runways 1
Magnetic Variation 4.233° E

METAR

LATI 152020Z 13008KT 9999 -RA BKN066 14/07 Q1008 NOSIG

Decode

TAF

TAF TAF LATI 151700Z 1518/1618 15008KT 9999 SCT030 BKN060 TEMPO 1520/1618 RA PROB40 TEMPO 1609/1618 20015KT 4000 TSRA SCT020CB OVC030

Decode

Destination Runways

ID Width Length Bearing (true) Bearing (mag) Surface Threshold Offset Overrun Length
18 148 ft / 45 m 8,984 ft / 2,738 m 174.31° 170.08° Asphalt 500 ft / 152 m 0 ft / 0 m
36 148 ft / 45 m 8,984 ft / 2,738 m 354.31° 350.08° Asphalt 500 ft / 152 m 0 ft / 0 m

Popular Alternatives